Time;durP1;ratioP1;P1;durP2;ratioP2;P2;SDS_P1;SDS_P2;PMS_P1;PMS_P2;Temp;Humidity;BMP_temperature;BMP_pressure;BME280_temperature;BME280_humidity;BME280_pressure;Samples;Min_cycle;Max_cycle;Signal;HPM_P1;HPM_P2
2021/01/26 00:01:48;;;;;;;27.45;13.32;;;;;;;5.49;94.57;97653.59;1736974;82;21382;-68
2021/01/26 00:04:16;;;;;;;22.20;12.73;;;;;;;5.45;94.59;97647.72;1736857;82;21245;-67
2021/01/26 00:06:43;;;;;;;23.22;12.80;;;;;;;5.46;94.75;97655.08;1737157;82;21200;-68
2021/01/26 00:09:11;;;;;;;30.77;14.28;;;;;;;5.43;94.71;97636.99;1736941;82;21679;-68
2021/01/26 00:11:45;;;;;;;22.73;11.97;;;;;;;5.41;94.81;97674.08;1737211;82;21368;-68
2021/01/26 00:14:14;;;;;;;23.45;11.90;;;;;;;5.38;94.63;97645.52;1769084;81;22170;-67
2021/01/26 00:16:41;;;;;;;22.80;12.43;;;;;;;5.38;94.69;97638.55;1769109;81;21213;-67
2021/01/26 00:19:09;;;;;;;24.47;11.45;;;;;;;5.36;94.77;97633.02;1768936;79;21688;-70
2021/01/26 00:21:37;;;;;;;22.52;12.00;;;;;;;5.33;95.06;97626.67;1768955;81;21189;-69
2021/01/26 00:24:08;;;;;;;26.75;13.48;;;;;;;5.30;95.32;97622.47;1769030;81;21125;-69
2021/01/26 00:26:46;;;;;;;20.95;11.50;;;;;;;5.27;95.42;97620.03;1769499;81;21229;-71
2021/01/26 00:29:14;;;;;;;19.82;11.18;;;;;;;5.26;95.47;97618.34;1736314;82;21205;-63
2021/01/26 00:31:42;;;;;;;27.67;11.68;;;;;;;5.26;95.47;97622.25;1736920;82;21174;-63
2021/01/26 00:34:10;;;;;;;23.25;11.40;;;;;;;5.25;95.42;97604.45;1736667;81;21205;-63
2021/01/26 00:36:38;;;;;;;28.23;14.05;;;;;;;5.24;95.48;97610.61;1736845;82;21166;-63
2021/01/26 00:39:06;;;;;;;26.23;12.47;;;;;;;5.20;95.55;97601.27;1736842;82;21389;-63
2021/01/26 00:41:34;;;;;;;19.20;10.10;;;;;;;5.16;95.69;97586.70;1736887;82;21724;-63
2021/01/26 00:44:02;;;;;;;15.50;9.88;;;;;;;5.21;95.71;97609.46;1733359;79;21226;-64
2021/01/26 00:46:29;;;;;;;23.15;10.60;;;;;;;5.17;95.80;97618.38;1729078;82;21489;-64
2021/01/26 00:48:57;;;;;;;19.48;11.30;;;;;;;5.17;95.84;97593.59;1728998;82;21146;-64
2021/01/26 00:51:25;;;;;;;22.32;10.53;;;;;;;5.16;95.94;97591.92;1729157;82;21292;-65
2021/01/26 00:53:53;;;;;;;18.55;9.65;;;;;;;5.15;95.97;97574.56;1729142;82;21894;-66
2021/01/26 00:56:21;;;;;;;15.93;9.63;;;;;;;5.17;96.00;97575.33;1751954;81;21217;-65
2021/01/26 00:58:49;;;;;;;14.23;9.33;;;;;;;5.15;96.05;97577.17;1747052;78;21173;-62
2021/01/26 01:01:18;;;;;;;15.85;9.18;;;;;;;5.14;96.09;97576.81;1760102;81;21213;-63
2021/01/26 01:03:48;;;;;;;19.70;9.90;;;;;;;5.17;96.07;97577.94;1763437;81;21633;-64
2021/01/26 01:06:16;;;;;;;14.30;9.33;;;;;;;5.17;96.08;97563.58;1763236;81;21463;-65
2021/01/26 01:08:45;;;;;;;17.40;8.43;;;;;;;5.19;96.09;97575.25;1762784;81;21154;-63
2021/01/26 01:11:14;;;;;;;16.82;9.13;;;;;;;5.20;96.06;97560.83;1762568;81;21186;-64
2021/01/26 01:13:42;;;;;;;16.77;8.80;;;;;;;5.17;96.18;97574.02;1756135;78;21216;-68
2021/01/26 01:16:09;;;;;;;15.10;9.48;;;;;;;5.19;96.17;97553.91;1753990;81;21362;-68
2021/01/26 01:18:37;;;;;;;16.82;10.35;;;;;;;5.17;96.20;97557.06;1753840;81;21180;-69
2021/01/26 01:21:05;;;;;;;20.92;10.60;;;;;;;5.14;96.34;97552.02;1723875;83;21208;-69
2021/01/26 01:23:33;;;;;;;17.12;9.50;;;;;;;5.11;96.47;97550.03;1723977;83;21180;-69
2021/01/26 01:26:01;;;;;;;15.75;8.53;;;;;;;5.10;96.72;97558.34;1754227;81;21592;-68
2021/01/26 01:28:29;;;;;;;17.15;10.53;;;;;;;5.07;96.86;97566.34;1723568;80;21201;-62
2021/01/26 01:30:57;;;;;;;17.62;8.65;;;;;;;5.03;97.03;97575.26;1703162;84;21268;-62
2021/01/26 01:33:24;;;;;;;17.82;9.18;;;;;;;5.02;97.09;97556.64;1703181;82;21152;-62
2021/01/26 01:35:53;;;;;;;15.13;9.55;;;;;;;5.01;97.25;97568.81;1673490;84;21215;-62
2021/01/26 01:38:21;;;;;;;19.37;9.58;;;;;;;5.00;97.27;97549.36;1702977;84;21224;-62
2021/01/26 01:40:52;;;;;;;14.55;8.68;;;;;;;4.98;97.34;97560.33;1703056;84;21438;-61
2021/01/26 01:43:21;;;;;;;13.75;8.18;;;;;;;4.98;97.32;97565.08;1745407;77;21238;-65
2021/01/26 01:45:49;;;;;;;14.50;8.70;;;;;;;4.98;97.31;97566.38;1781976;80;21182;-65
2021/01/26 01:48:22;;;;;;;16.93;8.30;;;;;;;4.99;97.33;97565.91;1782029;80;21179;-65
2021/01/26 01:51:05;;;;;;;13.93;8.08;;;;;;;4.97;97.39;97562.55;1810878;78;21174;-64
2021/01/26 01:53:46;;;;;;;15.50;9.28;;;;;;;4.93;97.44;97568.88;1845432;77;21366;-63
2021/01/26 01:56:22;;;;;;;13.70;8.50;;;;;;;4.84;97.40;97578.88;1850836;77;21214;-64
2021/01/26 01:58:55;;;;;;;9.18;5.85;;;;;;;4.80;97.78;97581.73;1762519;77;21202;-61
2021/01/26 02:01:26;;;;;;;12.35;7.42;;;;;;;4.76;97.89;97578.47;1699380;83;21214;-61
2021/01/26 02:04:01;;;;;;;9.73;5.37;;;;;;;4.70;98.13;97591.83;1697513;84;21657;-61
2021/01/26 02:06:32;;;;;;;5.72;4.15;;;;;;;4.52;96.94;97600.63;1696487;83;21355;-63
2021/01/26 02:09:10;;;;;;;3.52;3.12;;;;;;;4.19;95.59;97615.80;1695127;83;21680;-61
2021/01/26 02:11:38;;;;;;;4.03;3.30;;;;;;;3.83;94.21;97638.86;1682100;84;21183;-62
2021/01/26 02:14:06;;;;;;;8.53;3.50;;;;;;;3.46;94.16;97663.23;1695354;80;21232;-67
2021/01/26 02:16:45;;;;;;;5.37;2.90;;;;;;;3.13;93.40;97669.95;1695994;84;21160;-68
2021/01/26 02:19:31;;;;;;;2.95;2.55;;;;;;;2.76;92.41;97680.31;1696161;84;21380;-68
2021/01/26 02:22:42;;;;;;;3.02;2.55;;;;;;;2.37;91.42;97692.84;1674989;84;21588;-67
2021/01/26 02:25:24;;;;;;;3.02;2.58;;;;;;;2.13;92.01;97702.06;1696042;84;21184;-69
2021/01/26 02:28:51;;;;;;;2.95;2.65;;;;;;;1.87;91.72;97722.61;1693269;78;21189;-63
2021/01/26 02:32:11;;;;;;;4.53;2.70;;;;;;;1.75;92.20;97723.95;1770324;80;21179;-64
2021/01/26 02:35:19;;;;;;;3.00;2.70;;;;;;;1.61;92.93;97736.60;1770146;81;21198;-62
2021/01/26 02:38:15;;;;;;;3.62;2.85;;;;;;;1.48;93.56;97760.89;1770181;81;21165;-63
2021/01/26 02:41:05;;;;;;;4.67;3.20;;;;;;;1.39;93.75;97759.48;1777688;79;21193;-62
2021/01/26 02:43:57;;;;;;;;;;;;;;;1.27;93.68;97778.11;1765818;79;21197;-69
2021/01/26 02:46:51;;;;;;;3.45;2.08;;;;;;;1.22;93.98;97786.48;1742819;82;20612;-69
2021/01/26 02:49:40;;;;;;;3.30;2.75;;;;;;;1.11;93.71;97785.60;1687261;82;21996;-70
2021/01/26 02:52:25;;;;;;;3.80;2.67;;;;;;;1.08;94.11;97791.33;1712974;83;21660;-69
2021/01/26 02:55:10;;;;;;;3.42;2.42;;;;;;;0.98;94.34;97807.67;1692264;83;21197;-70
2021/01/26 02:57:46;;;;;;;6.78;3.20;;;;;;;0.80;94.31;97803.97;1716698;77;21073;-63
2021/01/26 03:00:19;;;;;;;3.27;2.98;;;;;;;0.87;94.87;97822.29;1758174;81;21164;-64
2021/01/26 03:03:07;;;;;;;7.20;2.67;;;;;;;0.83;94.44;97829.80;1758006;81;22132;-63
2021/01/26 03:05:57;;;;;;;3.70;2.52;;;;;;;0.80;94.74;97833.77;1745637;81;21622;-64
2021/01/26 03:09:09;;;;;;;4.15;3.05;;;;;;;0.78;94.97;97839.02;1738998;82;21217;-64
2021/01/26 03:11:45;;;;;;;6.28;3.27;;;;;;;0.72;94.75;97845.70;1739124;82;21170;-63
2021/01/26 03:14:17;;;;;;;6.30;3.87;;;;;;;0.67;95.09;97844.14;1734609;79;21576;-64
2021/01/26 03:16:50;;;;;;;5.97;3.83;;;;;;;0.61;94.94;97864.18;1710213;83;21423;-63
2021/01/26 03:19:21;;;;;;;6.10;2.92;;;;;;;0.56;95.08;97855.72;1711436;82;21189;-62
2021/01/26 03:21:51;;;;;;;5.30;3.47;;;;;;;0.56;95.11;97871.27;1710163;83;21660;-64
2021/01/26 03:24:24;;;;;;;7.62;3.77;;;;;;;0.50;94.23;97855.92;1737592;82;21223;-64
2021/01/26 03:26:52;;;;;;;6.08;3.42;;;;;;;0.48;94.10;97864.18;1737905;82;21121;-65
2021/01/26 03:29:30;;;;;;;5.95;4.03;;;;;;;0.47;94.13;97876.74;1680234;79;21201;-63
2021/01/26 03:32:02;;;;;;;8.73;5.30;;;;;;;0.44;94.12;97874.27;1689240;84;21214;-62
2021/01/26 03:34:29;;;;;;;6.17;4.80;;;;;;;0.43;94.13;97886.80;1689164;84;21147;-63
2021/01/26 03:36:58;;;;;;;8.90;4.90;;;;;;;0.41;94.17;97887.28;1689204;84;21230;-62
2021/01/26 03:39:25;;;;;;;10.40;6.47;;;;;;;0.39;93.96;97882.60;1688556;83;21201;-63
2021/01/26 03:41:53;;;;;;;9.70;5.75;;;;;;;0.39;94.03;97880.02;1667407;84;21687;-62
2021/01/26 03:44:20;;;;;;;10.15;6.25;;;;;;;0.39;93.47;97886.48;1724323;78;21203;-65
2021/01/26 03:47:08;;;;;;;13.18;7.17;;;;;;;0.39;92.73;97899.44;1727043;83;21189;-66
2021/01/26 03:50:09;;;;;;;12.25;6.70;;;;;;;0.40;92.68;97908.91;1669546;84;21211;-64
2021/01/26 03:52:52;;;;;;;11.70;6.92;;;;;;;0.39;92.57;97908.08;1662414;83;21131;-67
2021/01/26 03:55:37;;;;;;;10.90;7.35;;;;;;;0.41;92.72;97895.05;1682174;85;22379;-67
2021/01/26 03:58:32;;;;;;;13.53;8.13;;;;;;;0.41;92.11;97897.64;1670904;79;21309;-65
2021/01/26 04:01:39;;;;;;;14.07;7.35;;;;;;;0.41;91.83;97904.12;1739371;82;21190;-65
2021/01/26 04:04:29;;;;;;;14.43;8.58;;;;;;;0.41;91.37;97911.89;1739382;81;21191;-66
2021/01/26 04:07:05;;;;;;;16.05;8.93;;;;;;;0.41;91.45;97910.17;1765570;81;21202;-66
2021/01/26 04:09:36;;;;;;;15.18;9.23;;;;;;;0.40;90.60;97911.50;1765854;81;21307;-66
2021/01/26 04:12:18;;;;;;;18.73;10.48;;;;;;;0.37;90.34;97921.97;1765935;81;21182;-65
2021/01/26 04:14:55;;;;;;;18.87;10.32;;;;;;;0.38;90.86;97931.41;1758858;76;21205;-67
2021/01/26 04:17:31;;;;;;;20.85;10.20;;;;;;;0.37;91.02;97940.09;1757025;81;21205;-66
2021/01/26 04:20:07;;;;;;;18.35;9.25;;;;;;;0.33;91.08;97938.48;1756925;81;22273;-66
2021/01/26 04:22:34;;;;;;;16.00;9.80;;;;;;;0.35;91.35;97947.05;1725353;82;22685;-66
2021/01/26 04:25:30;;;;;;;22.93;9.23;;;;;;;0.37;91.21;97949.16;1887426;75;22616;-66
2021/01/26 04:28:01;;;;;;;16.42;9.10;;;;;;;0.31;91.03;97953.22;1850484;75;21642;-62
2021/01/26 04:30:28;;;;;;;22.98;11.30;;;;;;;0.29;90.53;97951.95;1701730;84;21829;-62
2021/01/26 04:33:05;;;;;;;21.20;10.35;;;;;;;0.31;90.48;97959.69;1701560;84;21199;-63
2021/01/26 04:35:33;;;;;;;18.90;10.65;;;;;;;0.29;90.18;97957.59;1701549;84;21222;-63
2021/01/26 04:38:01;;;;;;;22.02;11.15;;;;;;;0.29;89.88;97962.77;1700111;84;21226;-62
2021/01/26 04:40:29;;;;;;;20.32;11.12;;;;;;;0.29;89.20;97968.78;1698062;84;21139;-62
2021/01/26 04:43:20;;;;;;;19.82;10.35;;;;;;;0.31;89.10;97975.22;1695747;80;21397;-64
2021/01/26 04:46:00;;;;;;;17.67;9.53;;;;;;;0.32;89.10;97979.49;1723373;83;21186;-63
2021/01/26 04:48:56;;;;;;;22.48;13.30;;;;;;;0.32;88.85;97984.25;1691517;84;21277;-63
2021/01/26 04:51:30;;;;;;;23.92;13.98;;;;;;;0.34;89.43;97988.06;1703825;84;21225;-64
2021/01/26 04:54:26;;;;;;;26.40;12.90;;;;;;;0.35;89.15;97997.55;1703510;84;21229;-63
2021/01/26 04:57:18;;;;;;;23.77;12.00;;;;;;;0.32;89.00;97992.44;1703537;84;21486;-63
2021/01/26 05:00:27;;;;;;;18.65;8.93;;;;;;;0.32;88.54;98010.56;1712755;79;21664;-63
2021/01/26 05:03:12;;;;;;;26.55;14.10;;;;;;;0.33;88.16;98013.12;1712297;83;21258;-64
2021/01/26 05:05:44;;;;;;;22.87;12.15;;;;;;;0.33;88.44;98021.34;1712310;83;21167;-63
2021/01/26 05:08:26;;;;;;;21.95;11.63;;;;;;;0.34;87.74;98023.02;1712518;83;21665;-64
2021/01/26 05:11:15;;;;;;;26.65;13.43;;;;;;;0.34;86.99;98025.61;1712124;83;21277;-64
2021/01/26 05:13:51;;;;;;;19.90;10.43;;;;;;;0.36;86.65;98040.66;1734414;78;21180;-67
2021/01/26 05:16:30;;;;;;;23.77;12.00;;;;;;;0.38;85.86;98044.05;1762307;81;21049;-66
2021/01/26 05:19:18;;;;;;;21.55;11.05;;;;;;;0.41;86.24;98048.70;1762288;81;21084;-67
2021/01/26 05:21:54;;;;;;;27.27;13.55;;;;;;;0.40;84.72;98057.81;1742525;81;21149;-65
2021/01/26 05:24:31;;;;;;;18.17;8.78;;;;;;;0.45;85.04;98054.62;1762083;81;21374;-65
2021/01/26 05:27:00;;;;;;;20.92;12.98;;;;;;;0.45;84.40;98057.67;1761972;80;21108;-65
2021/01/26 05:29:29;;;;;;;14.98;7.60;;;;;;;0.46;83.72;98060.23;1763463;79;21109;-64
2021/01/26 05:32:03;;;;;;;18.20;10.23;;;;;;;0.46;83.32;98079.66;1763096;81;21045;-63
2021/01/26 05:34:34;;;;;;;22.93;11.93;;;;;;;0.49;82.84;98075.66;1763159;81;21042;-64
2021/01/26 05:37:06;;;;;;;;;;;;;;;0.51;83.50;98085.54;1765203;80;21359;-64
2021/01/26 05:39:49;;;;;;;21.40;11.68;;;;;;;0.51;82.54;98090.72;1762021;81;20297;-64
2021/01/26 05:42:17;;;;;;;22.60;11.08;;;;;;;0.53;82.85;98094.53;1757958;81;21078;-66
2021/01/26 05:44:52;;;;;;;17.75;9.10;;;;;;;0.53;82.58;98107.06;1771460;78;21098;-67
2021/01/26 05:47:24;;;;;;;26.15;13.00;;;;;;;0.55;82.41;98109.59;1777740;80;21634;-67
2021/01/26 05:49:53;;;;;;;32.00;13.05;;;;;;;0.55;82.08;98115.64;1761541;81;21399;-67
2021/01/26 05:52:24;;;;;;;29.82;13.50;;;;;;;0.59;82.23;98106.86;1762494;81;21197;-69
2021/01/26 05:54:55;;;;;;;33.45;14.63;;;;;;;0.59;81.91;98114.64;1761282;81;21513;-68
2021/01/26 05:57:25;;;;;;;;;;;;;;;0.62;82.29;98110.69;1764821;81;21091;-67
2021/01/26 05:59:52;;;;;;;26.68;11.20;;;;;;;0.62;81.77;98113.27;1703863;79;20300;-65
2021/01/26 06:02:22;;;;;;;20.20;9.48;;;;;;;0.62;81.14;98111.98;1668966;86;21725;-65
2021/01/26 06:04:50;;;;;;;27.10;11.83;;;;;;;0.65;80.75;98115.38;1667998;84;21567;-64
2021/01/26 06:07:25;;;;;;;18.25;9.18;;;;;;;0.67;80.97;98123.92;1674576;85;21116;-64
2021/01/26 06:09:53;;;;;;;18.67;8.05;;;;;;;0.69;80.60;98120.84;1670395;84;21147;-65
2021/01/26 06:12:24;;;;;;;19.37;9.58;;;;;;;0.70;80.19;98121.27;1650912;85;21137;-65
2021/01/26 06:15:00;;;;;;;20.55;10.32;;;;;;;0.71;79.36;98128.13;1709530;78;21434;-69
2021/01/26 06:19:28;;;;;;;15.47;7.47;;;;;;;0.77;79.49;98149.98;1812484;77;22947;-69
2021/01/26 06:21:55;;;;;;;18.07;9.08;;;;;;;0.77;79.49;98149.98;1771053;79;21175;-69
2021/01/26 06:24:26;;;;;;;18.65;9.68;;;;;;;0.78;79.20;98146.06;1779414;79;21529;-69
2021/01/26 06:27:26;;;;;;;8.45;4.15;;;;;;;0.79;78.51;98162.45;1780300;78;21590;-70
2021/01/26 06:30:16;;;;;;;13.50;7.53;;;;;;;0.79;77.69;98162.00;1655487;79;21259;-65
2021/01/26 06:33:21;;;;;;;12.00;6.47;;;;;;;0.82;78.20;98159.77;1691643;83;21208;-65
2021/01/26 06:36:34;;;;;;;12.00;6.50;;;;;;;0.83;77.93;98161.48;1654836;86;21255;-64
2021/01/26 06:39:28;;;;;;;10.38;5.35;;;;;;;0.86;77.31;98171.74;1671123;85;22347;-65
2021/01/26 06:42:26;;;;;;;14.03;6.78;;;;;;;0.87;76.82;98176.02;1669687;85;21248;-65
2021/01/26 06:45:05;;;;;;;11.18;6.92;;;;;;;0.91;77.12;98185.86;1702232;81;21136;-64
2021/01/26 06:47:51;;;;;;;14.47;7.10;;;;;;;0.90;77.41;98205.75;1732744;81;21084;-64
2021/01/26 06:50:42;;;;;;;16.12;7.92;;;;;;;0.94;77.80;98185.31;1720499;83;21133;-65
2021/01/26 06:53:50;;;;;;;9.95;5.78;;;;;;;0.93;77.10;98197.88;1713009;83;21376;-66
2021/01/26 06:56:47;;;;;;;13.10;6.53;;;;;;;0.96;77.55;98200.38;1751281;81;21169;-65
2021/01/26 06:59:57;;;;;;;12.53;6.97;;;;;;;0.98;77.25;98216.73;1704318;82;21143;-65
2021/01/26 07:03:10;;;;;;;10.28;5.35;;;;;;;1.03;77.55;98233.45;1660890;85;21541;-65
2021/01/26 07:06:00;;;;;;;12.68;6.40;;;;;;;1.02;75.81;98227.42;1614647;88;21104;-65
2021/01/26 07:08:45;;;;;;;14.25;7.00;;;;;;;1.07;75.66;98236.81;1648051;86;21880;-65
2021/01/26 07:11:38;;;;;;;11.00;5.87;;;;;;;1.10;76.42;98239.31;1643567;86;21211;-65
2021/01/26 07:14:24;;;;;;;15.03;7.30;;;;;;;1.11;76.17;98240.57;1659920;82;21138;-66
2021/01/26 07:16:58;;;;;;;11.28;6.72;;;;;;;1.10;76.19;98255.70;1650216;84;21117;-65
2021/01/26 07:20:07;;;;;;;14.53;5.80;;;;;;;1.09;75.90;98256.61;1678216;85;21143;-65
2021/01/26 07:22:54;;;;;;;11.60;6.35;;;;;;;1.10;75.78;98273.86;1684779;85;21404;-65
2021/01/26 07:25:50;;;;;;;14.63;5.85;;;;;;;1.11;76.25;98271.68;1707577;83;21151;-67
2021/01/26 07:28:39;;;;;;;12.68;7.00;;;;;;;1.10;76.06;98269.13;1708326;83;21170;-65
2021/01/26 07:31:19;;;;;;;11.68;5.95;;;;;;;1.09;76.42;98270.87;1655518;86;21545;-69
2021/01/26 07:34:04;;;;;;;11.93;5.83;;;;;;;1.11;76.88;98285.09;1634599;85;21109;-68
2021/01/26 07:36:41;;;;;;;14.20;6.83;;;;;;;1.11;76.43;98294.17;1631245;86;21499;-69
2021/01/26 07:39:27;;;;;;;11.90;6.62;;;;;;;1.11;76.53;98285.94;1629249;86;21250;-69
2021/01/26 07:42:05;;;;;;;10.75;5.80;;;;;;;1.11;75.81;98277.32;1648046;86;21135;-68
2021/01/26 07:44:59;;;;;;;14.98;6.65;;;;;;;1.12;76.40;98303.64;1652109;83;21167;-65
2021/01/26 07:47:44;;;;;;;12.63;6.78;;;;;;;1.10;76.18;98296.34;1662925;84;21144;-64
2021/01/26 07:50:33;;;;;;;11.65;5.72;;;;;;;1.14;76.37;98309.18;1636568;84;21423;-64
2021/01/26 07:53:26;;;;;;;9.00;5.55;;;;;;;1.15;74.74;98310.89;1673550;84;21137;-66
2021/01/26 07:56:16;;;;;;;10.65;4.85;;;;;;;1.19;75.12;98309.05;1719801;83;21153;-66
2021/01/26 07:58:47;;;;;;;10.63;5.80;;;;;;;1.20;74.87;98315.95;1665569;83;21118;31
2021/01/26 08:01:19;;;;;;;11.57;6.45;;;;;;;1.24;75.64;98311.06;1730883;81;21080;-69
2021/01/26 08:03:48;;;;;;;12.68;5.90;;;;;;;1.26;75.66;98310.57;1749410;81;21121;-70
2021/01/26 08:06:41;;;;;;;10.28;4.80;;;;;;;1.28;75.32;98318.31;1718462;81;21663;-71
2021/01/26 08:09:21;;;;;;;7.70;4.40;;;;;;;1.27;75.54;98322.66;1714004;81;21118;-71
2021/01/26 08:12:09;;;;;;;8.03;3.72;;;;;;;1.28;74.77;98328.23;1717975;81;25616;-70
2021/01/26 08:14:49;;;;;;;10.50;5.08;;;;;;;1.27;74.30;98329.14;1732854;78;21549;-69
2021/01/26 08:17:30;;;;;;;10.03;5.53;;;;;;;1.30;74.50;98332.94;1761705;79;21383;-67
2021/01/26 08:20:14;;;;;;;7.53;4.33;;;;;;;1.31;74.55;98338.55;1765886;79;21570;-68
2021/01/26 08:23:06;;;;;;;12.68;6.17;;;;;;;1.25;75.00;98340.00;1763580;79;21696;-67
2021/01/26 08:25:39;;;;;;;9.55;5.15;;;;;;;1.33;75.20;98338.02;1764313;79;21118;-67
2021/01/26 08:28:09;;;;;;;10.50;4.97;;;;;;;1.33;75.03;98356.18;1769054;79;21078;-66
2021/01/26 08:30:49;;;;;;;10.95;5.20;;;;;;;1.34;74.88;98370.02;1722618;79;22140;-71
2021/01/26 08:33:20;;;;;;;10.78;5.72;;;;;;;1.34;75.04;98368.27;1713800;82;21574;-70
2021/01/26 08:36:22;;;;;;;11.60;3.72;;;;;;;1.33;74.36;98367.85;1722585;82;21507;-70
2021/01/26 08:38:58;;;;;;;7.17;3.83;;;;;;;1.33;74.02;98382.12;1715804;82;21139;-71
2021/01/26 08:41:51;;;;;;;9.90;5.75;;;;;;;1.33;74.33;98367.85;1713500;82;21230;-71
2021/01/26 08:44:25;;;;;;;8.63;4.55;;;;;;;1.34;74.52;98394.66;1714684;81;22689;-66
2021/01/26 08:46:53;;;;;;;8.95;5.53;;;;;;;1.34;74.18;98388.18;1741551;81;21130;-68
2021/01/26 08:49:30;;;;;;;10.28;4.20;;;;;;;1.33;75.03;98386.01;1732482;81;21135;-68
2021/01/26 08:52:23;;;;;;;13.03;5.08;;;;;;;1.34;74.88;98396.80;1732559;81;21133;-68
2021/01/26 08:54:55;;;;;;;9.73;4.83;;;;;;;1.34;74.34;98394.21;1737556;81;21103;-67
2021/01/26 08:57:35;;;;;;;9.30;4.83;;;;;;;1.34;73.90;98403.29;1734184;81;21453;-67
2021/01/26 09:00:26;;;;;;;7.30;3.90;;;;;;;1.32;73.96;98418.03;1720626;80;21177;-71
2021/01/26 09:02:54;;;;;;;7.62;3.98;;;;;;;1.31;73.85;98407.27;1672853;85;21176;-72
2021/01/26 09:05:42;;;;;;;5.12;3.12;;;;;;;1.33;73.53;98433.14;1692355;83;21115;-72
2021/01/26 09:08:10;;;;;;;6.05;3.17;;;;;;;1.30;71.90;98414.63;1700918;83;21116;-71
2021/01/26 09:10:40;;;;;;;5.58;3.60;;;;;;;1.30;71.98;98419.81;1694752;83;21421;-72
2021/01/26 09:13:14;;;;;;;5.85;3.37;;;;;;;1.30;71.95;98439.27;1695436;83;21133;-70
2021/01/26 09:15:53;;;;;;;5.05;3.05;;;;;;;1.31;71.46;98425.42;1701533;80;21117;-66
2021/01/26 09:18:23;;;;;;;6.45;3.45;;;;;;;1.30;71.44;98430.19;1665612;85;21159;-67
2021/01/26 09:21:01;;;;;;;5.95;3.75;;;;;;;1.34;72.07;98449.97;1647312;87;21568;-66
2021/01/26 09:23:30;;;;;;;5.67;4.00;;;;;;;1.36;72.78;98444.30;1626472;87;21400;-67
2021/01/26 09:25:58;;;;;;;6.95;3.12;;;;;;;1.37;72.05;98446.44;1644433;86;21195;-66
2021/01/26 09:28:29;;;;;;;4.00;2.80;;;;;;;1.35;71.58;98456.84;1645408;86;21129;-67
2021/01/26 09:31:00;;;;;;;6.28;3.20;;;;;;;1.33;70.45;98449.55;1654564;83;21156;-71
2021/01/26 09:33:29;;;;;;;5.83;2.65;;;;;;;1.34;70.94;98466.83;1686019;85;21120;-69
2021/01/26 09:36:09;;;;;;;7.85;3.72;;;;;;;1.34;70.43;98469.42;1685911;85;21135;-71
2021/01/26 09:39:03;;;;;;;4.90;3.00;;;;;;;1.35;70.05;98476.30;1686003;85;21690;-70
2021/01/26 09:41:41;;;;;;;6.42;4.30;;;;;;;1.39;70.52;98486.17;1825060;76;27903;-71
2021/01/26 09:44:12;;;;;;;4.95;2.80;;;;;;;1.40;70.72;98477.48;1803962;78;21100;-67
2021/01/26 09:46:51;;;;;;;7.10;3.72;;;;;;;1.38;69.88;98479.26;1787178;80;22339;-68
2021/01/26 09:49:26;;;;;;;10.75;3.90;;;;;;;1.41;71.33;98490.42;1786270;80;21179;-67
2021/01/26 09:52:08;;;;;;;4.20;2.85;;;;;;;1.39;70.43;98476.63;1787382;80;21170;-67
2021/01/26 09:54:39;;;;;;;6.47;3.05;;;;;;;1.36;70.75;98485.80;1761114;80;21207;-67
2021/01/26 09:57:10;;;;;;;4.92;2.98;;;;;;;1.34;70.75;98473.77;1787083;80;21221;-67
2021/01/26 09:59:39;;;;;;;8.08;4.70;;;;;;;1.31;70.86;98488.97;1751893;78;21469;-71
2021/01/26 10:02:13;;;;;;;18.70;7.03;;;;;;;1.31;70.57;98501.06;1732147;81;21168;-69
2021/01/26 10:04:42;;;;;;;12.10;5.28;;;;;;;1.32;71.45;98510.11;1756039;81;21207;-71
2021/01/26 10:07:14;;;;;;;8.43;4.47;;;;;;;1.34;71.49;98499.25;1746035;81;21199;-70
2021/01/26 10:09:42;;;;;;;;;;;;;;;1.32;71.83;98515.30;1768878;81;21202;-72
2021/01/26 10:12:37;;;;;;;12.80;5.35;;;;;;;1.29;71.04;98499.83;1766368;80;21881;-70
2021/01/26 10:18:18;;;;;;;10.77;6.57;;;;;;;1.36;71.47;98512.20;1836489;76;22742;-68
2021/01/26 10:20:53;;;;;;;15.55;7.15;;;;;;;1.34;71.51;98504.89;1795696;79;22148;-66
2021/01/26 10:23:34;;;;;;;8.88;5.47;;;;;;;1.34;72.04;98520.45;1778199;78;21194;-67
2021/01/26 10:26:24;;;;;;;13.93;7.67;;;;;;;1.30;72.28;98524.85;1756268;80;21226;-66
2021/01/26 10:29:16;;;;;;;11.38;6.78;;;;;;;1.32;72.58;98519.19;1738561;82;21791;-66
2021/01/26 10:31:55;;;;;;;13.98;5.60;;;;;;;1.34;73.28;98523.89;1781841;79;21177;-66
2021/01/26 10:34:44;;;;;;;6.87;3.90;;;;;;;1.30;71.86;98534.38;1801158;79;21174;-67
2021/01/26 10:37:16;;;;;;;9.25;5.33;;;;;;;1.31;71.86;98529.17;1800013;79;22806;-66
2021/01/26 10:39:45;;;;;;;12.23;5.83;;;;;;;1.32;72.34;98532.16;1803367;78;21242;-67
2021/01/26 10:42:23;;;;;;;17.45;7.08;;;;;;;1.34;72.86;98541.20;1819173;78;21150;-67
2021/01/26 10:44:53;;;;;;;18.70;6.20;;;;;;;1.36;72.17;98529.05;1808600;78;21190;-67
2021/01/26 10:47:25;;;;;;;21.00;9.05;;;;;;;1.38;71.19;98545.40;1823293;76;21218;-64
2021/01/26 10:50:05;;;;;;;14.03;6.55;;;;;;;1.38;72.57;98563.56;1771088;81;21365;-66
2021/01/26 10:52:46;;;;;;;11.45;4.50;;;;;;;1.41;72.43;98569.98;1762773;79;21328;-68
2021/01/26 10:55:16;;;;;;;10.25;4.33;;;;;;;1.38;70.81;98577.41;1767727;79;21479;-69
2021/01/26 10:57:45;;;;;;;8.18;4.45;;;;;;;1.32;70.84;98569.77;1764362;79;21222;-68
2021/01/26 11:00:29;;;;;;;10.20;6.33;;;;;;;1.37;70.96;98569.65;1754704;76;21230;-72
2021/01/26 11:02:59;;;;;;;13.28;6.58;;;;;;;1.40;71.70;98572.16;1749539;81;21587;-70
2021/01/26 11:05:28;;;;;;;10.10;4.42;;;;;;;1.42;71.72;98575.56;1784388;79;22137;-71
2021/01/26 11:07:55;;;;;;;15.08;5.55;;;;;;;1.41;70.77;98579.06;1755525;81;21193;-73
2021/01/26 11:10:25;;;;;;;11.22;4.17;;;;;;;1.41;71.39;98585.55;1761711;80;21770;-72
2021/01/26 11:12:55;;;;;;;10.53;5.90;;;;;;;1.42;70.77;98585.49;1768327;81;21129;-69
2021/01/26 11:15:27;;;;;;;11.75;5.97;;;;;;;1.42;71.30;98594.57;1763540;78;21262;-68
2021/01/26 11:17:52;;;;;;;18.10;5.30;;;;;;;1.45;72.16;98589.33;1745749;81;21601;-66
2021/01/26 11:20:23;;;;;;;8.60;5.05;;;;;;;1.46;72.24;98603.98;1751313;81;21162;-68
2021/01/26 11:22:50;;;;;;;12.18;6.42;;;;;;;1.50;70.83;98601.34;1740624;81;21191;-66
2021/01/26 11:25:18;;;;;;;15.68;4.00;;;;;;;1.52;71.00;98593.92;1738352;81;21205;-67
2021/01/26 11:27:48;;;;;;;11.80;5.42;;;;;;;1.53;70.48;98607.29;1719198;80;21205;-67
2021/01/26 11:30:17;;;;;;;11.33;5.20;;;;;;;1.53;70.41;98609.04;1733261;78;21137;-66
2021/01/26 11:32:44;;;;;;;11.35;4.45;;;;;;;1.52;70.23;98620.29;1739519;82;21133;-66
2021/01/26 11:35:14;;;;;;;8.23;4.35;;;;;;;1.52;69.88;98617.69;1752106;81;21097;-67
2021/01/26 11:37:42;;;;;;;7.92;4.60;;;;;;;1.51;70.06;98623.79;1732963;81;21124;-65
2021/01/26 11:40:10;;;;;;;7.47;4.28;;;;;;;1.49;69.93;98630.30;1745463;81;21338;-66
2021/01/26 11:42:38;;;;;;;11.22;5.60;;;;;;;1.48;69.76;98623.88;1742535;80;21578;-67
2021/01/26 11:45:08;;;;;;;9.05;4.60;;;;;;;1.51;70.76;98628.53;1750716;78;21181;-67
2021/01/26 11:47:36;;;;;;;13.83;5.83;;;;;;;1.52;69.95;98630.67;1777776;79;21159;-68
2021/01/26 11:50:42;;;;;;;8.70;4.25;;;;;;;1.53;70.26;98637.58;1759530;80;75109;-67
2021/01/26 11:54:09;;;;;;;12.58;4.78;;;;;;;1.54;70.06;98639.27;1730246;81;21127;-68
2021/01/26 11:56:37;;;;;;;8.50;3.70;;;;;;;1.57;69.40;98640.52;1723288;81;21738;-68
2021/01/26 11:59:05;;;;;;;12.55;5.67;;;;;;;1.58;69.40;98659.91;1683198;83;21567;-72
2021/01/26 12:01:32;;;;;;;13.53;5.35;;;;;;;1.61;69.17;98623.95;1744174;78;21117;-71
2021/01/26 12:04:00;;;;;;;10.98;5.00;;;;;;;1.60;68.92;98637.37;1734532;82;21147;-71
2021/01/26 12:06:28;;;;;;;8.30;3.85;;;;;;;1.63;68.78;98659.80;1754789;80;22060;-70
2021/01/26 12:08:56;;;;;;;9.73;5.80;;;;;;;1.63;67.72;98654.61;1755698;80;21215;-72
2021/01/26 12:11:24;;;;;;;10.05;5.53;;;;;;;1.61;68.96;98656.39;1755570;80;21523;-70
2021/01/26 12:13:51;;;;;;;14.18;6.25;;;;;;;1.60;68.49;98659.89;1757071;80;21861;-72
2021/01/26 12:16:19;;;;;;;11.95;4.72;;;;;;;1.58;68.62;98667.70;1763064;79;21134;-67
2021/01/26 12:18:47;;;;;;;14.98;5.08;;;;;;;1.59;68.08;98660.80;1825086;78;21356;-68
2021/01/26 12:21:15;;;;;;;11.95;5.50;;;;;;;1.60;68.28;98661.19;1816520;78;21131;-67
2021/01/26 12:23:47;;;;;;;9.83;3.98;;;;;;;1.61;68.76;98665.47;1798255;79;21080;-67
2021/01/26 12:26:12;;;;;;;15.58;6.25;;;;;;;1.61;68.09;98677.16;1817626;78;21104;-68
2021/01/26 12:28:40;;;;;;;7.72;4.05;;;;;;;1.66;68.68;98677.92;1820296;78;21541;-67
2021/01/26 12:31:08;;;;;;;12.58;5.33;;;;;;;1.65;68.03;98678.79;1753187;77;21312;-70